Time;durP1;ratioP1;P1;durP2;ratioP2;P2;SDS_P1;SDS_P2;PMS_P1;PMS_P2;Temp;Humidity;BMP_temperature;BMP_pressure;BME280_temperature;BME280_humidity;BME280_pressure;Samples;Min_cycle;Max_cycle;Signal;HPM_P1;HPM_P2
2022/01/19 00:00:01;;;;;;;51.00;28.13;;;;;;;;;;4985212;28;20042;-83
2022/01/19 00:02:27;;;;;;;54.60;31.08;;;;;;;;;;4984562;28;20489;-83
2022/01/19 00:04:53;;;;;;;49.90;28.63;;;;;;;;;;4995903;28;20616;-83
2022/01/19 00:07:19;;;;;;;47.63;27.02;;;;;;;;;;5002669;28;20907;-83
2022/01/19 00:09:45;;;;;;;57.20;32.40;;;;;;;;;;4985953;28;20069;-83
2022/01/19 00:12:11;;;;;;;47.35;26.85;;;;;;;;;;5003234;28;20034;-83
2022/01/19 00:14:37;;;;;;;60.00;30.08;;;;;;;;;;4969637;28;20050;-84
2022/01/19 00:17:04;;;;;;;51.70;28.25;;;;;;;;;;4969033;28;20045;-84
2022/01/19 00:19:30;;;;;;;42.72;22.25;;;;;;;;;;5003522;28;20433;-84
2022/01/19 00:21:56;;;;;;;47.40;27.98;;;;;;;;;;5003172;28;20576;-83
2022/01/19 00:24:22;;;;;;;53.92;29.15;;;;;;;;;;4985173;28;20069;-82
2022/01/19 00:26:48;;;;;;;42.30;23.98;;;;;;;;;;5003605;28;20060;-83
2022/01/19 00:29:14;;;;;;;53.40;26.10;;;;;;;;;;5003225;28;20456;-83
2022/01/19 00:31:40;;;;;;;48.63;28.15;;;;;;;;;;4985461;28;20042;-83
2022/01/19 00:34:06;;;;;;;45.15;24.88;;;;;;;;;;4984014;28;20053;-83
2022/01/19 00:36:32;;;;;;;43.67;22.45;;;;;;;;;;5004381;28;20084;-83
2022/01/19 00:38:58;;;;;;;49.97;25.33;;;;;;;;;;4989679;28;20133;-83
2022/01/19 00:41:24;;;;;;;52.75;27.08;;;;;;;;;;4988129;28;20077;-83
2022/01/19 00:43:50;;;;;;;52.00;29.58;;;;;;;;;;5007239;28;20046;-83
2022/01/19 00:46:16;;;;;;;51.20;26.75;;;;;;;;;;4989379;28;20042;-84
2022/01/19 00:48:42;;;;;;;50.17;28.40;;;;;;;;;;5007656;28;20482;-81
2022/01/19 00:51:08;;;;;;;46.10;23.98;;;;;;;;;;4989018;28;20049;-82
2022/01/19 00:53:35;;;;;;;44.30;26.13;;;;;;;;;;4989439;28;20050;-83
2022/01/19 00:56:01;;;;;;;35.67;18.95;;;;;;;;;;4972164;28;20042;-84
2022/01/19 00:58:27;;;;;;;42.38;23.13;;;;;;;;;;5007039;28;20073;-83
2022/01/19 01:00:53;;;;;;;43.72;21.70;;;;;;;;;;5005207;28;20050;-83
2022/01/19 01:03:19;;;;;;;37.00;19.13;;;;;;;;;;4989211;28;20076;-81
2022/01/19 01:05:46;;;;;;;40.55;21.40;;;;;;;;;;5006613;28;20061;-83
2022/01/19 01:08:12;;;;;;;48.78;20.38;;;;;;;;;;4988443;28;20135;-83
2022/01/19 01:10:42;;;;;;;44.50;19.95;;;;;;;;;;4990038;28;20052;-82
2022/01/19 01:13:29;;;;;;;48.35;21.88;;;;;;;;;;5005842;28;20041;-83
2022/01/19 01:18:25;;;;;;;55.83;23.10;;;;;;;;;;5005935;28;20509;-83
2022/01/19 01:20:52;;;;;;;60.92;23.48;;;;;;;;;;4993342;28;20042;-84
2022/01/19 01:23:20;;;;;;;58.85;24.38;;;;;;;;;;5018003;28;20037;-84
2022/01/19 01:25:46;;;;;;;63.10;25.30;;;;;;;;;;5014480;28;20092;-85
2022/01/19 01:28:13;;;;;;;65.53;25.27;;;;;;;;;;4990606;28;20045;-84
2022/01/19 01:30:40;;;;;;;63.78;26.13;;;;;;;;;;5005896;28;20659;-82
2022/01/19 01:33:06;;;;;;;62.60;24.02;;;;;;;;;;4971592;28;20080;-84
2022/01/19 01:35:33;;;;;;;69.25;27.45;;;;;;;;;;5003898;28;20402;-83
2022/01/19 01:37:59;;;;;;;74.82;29.13;;;;;;;;;;4976140;28;20088;-84
2022/01/19 01:40:26;;;;;;;74.22;28.27;;;;;;;;;;5006394;28;20037;-83
2022/01/19 01:42:56;;;;;;;69.05;26.85;;;;;;;;;;5006526;28;20440;-83
2022/01/19 01:45:29;;;;;;;65.82;23.90;;;;;;;;;;5006119;28;20065;-83
2022/01/19 01:48:20;;;;;;;72.13;28.23;;;;;;;;;;4986756;28;20066;-83
2022/01/19 01:53:29;;;;;;;62.85;25.67;;;;;;;;;;5006297;28;20060;-83
2022/01/19 01:55:56;;;;;;;70.45;29.88;;;;;;;;;;5005730;28;20401;-83
2022/01/19 01:58:22;;;;;;;73.32;29.48;;;;;;;;;;5006384;28;20509;-83
2022/01/19 02:00:49;;;;;;;70.10;29.45;;;;;;;;;;4986878;28;20049;-83
2022/01/19 02:03:15;;;;;;;69.32;28.00;;;;;;;;;;4970991;28;20061;-84
2022/01/19 02:05:57;;;;;;;65.32;26.02;;;;;;;;;;5002195;28;20068;-84
2022/01/19 02:08:35;;;;;;;76.75;30.08;;;;;;;;;;5004917;28;20038;-83
2022/01/19 02:16:24;;;;;;;97.82;32.40;;;;;;;;;;5004854;28;20827;-83
2022/01/19 02:21:46;;;;;;;74.25;30.42;;;;;;;;;;5000477;28;20057;-82
2022/01/19 02:24:14;;;;;;;82.05;31.15;;;;;;;;;;5002209;28;20104;-84
2022/01/19 02:30:33;;;;;;;80.18;30.73;;;;;;;;;;4898417;29;20524;-83
2022/01/19 02:41:01;;;;;;;80.22;30.30;;;;;;;;;;5003832;28;20073;-83
2022/01/19 02:43:29;;;;;;;73.40;30.42;;;;;;;;;;4985999;28;20096;-82
2022/01/19 02:51:24;;;;;;;64.80;26.48;;;;;;;;;;4999752;28;20426;-83
2022/01/19 02:53:50;;;;;;;84.57;30.95;;;;;;;;;;5005851;28;20046;-82
2022/01/19 02:56:28;;;;;;;77.03;29.10;;;;;;;;;;4986743;28;20080;-83
2022/01/19 02:59:10;;;;;;;79.68;29.98;;;;;;;;;;5004210;28;20069;-83
2022/01/19 03:09:44;;;;;;;86.00;28.70;;;;;;;;;;5004259;28;20490;-83
2022/01/19 03:12:11;;;;;;;66.18;25.80;;;;;;;;;;4988659;28;20050;-84
2022/01/19 03:14:37;;;;;;;74.15;26.48;;;;;;;;;;5003975;28;20030;-84
2022/01/19 03:17:04;;;;;;;98.40;32.40;;;;;;;;;;4987343;28;20132;-83
2022/01/19 03:19:31;;;;;;;74.38;25.70;;;;;;;;;;4987238;28;20045;-83
2022/01/19 03:21:57;;;;;;;86.03;33.25;;;;;;;;;;5005869;28;20124;-83
2022/01/19 03:24:24;;;;;;;70.90;24.55;;;;;;;;;;4986388;28;20072;-83
2022/01/19 03:26:50;;;;;;;71.45;25.40;;;;;;;;;;5004796;28;20053;-83
2022/01/19 03:29:16;;;;;;;86.32;29.52;;;;;;;;;;5011763;28;21143;-84
2022/01/19 03:31:42;;;;;;;104.97;36.72;;;;;;;;;;4997686;28;20510;-84
2022/01/19 03:34:08;;;;;;;91.60;33.13;;;;;;;;;;5018090;28;20221;-83
2022/01/19 03:36:35;;;;;;;89.78;32.63;;;;;;;;;;4989163;28;20038;-82
2022/01/19 03:39:01;;;;;;;77.95;30.17;;;;;;;;;;4986611;28;20429;-82
2022/01/19 03:41:27;;;;;;;66.35;27.20;;;;;;;;;;4986478;28;20050;-82
2022/01/19 03:43:53;;;;;;;87.43;30.15;;;;;;;;;;4984642;28;20093;-83
2022/01/19 03:46:21;;;;;;;55.35;22.63;;;;;;;;;;4986173;28;20109;-82
2022/01/19 03:51:16;;;;;;;59.42;22.10;;;;;;;;;;4986834;28;20061;-83
2022/01/19 03:53:42;;;;;;;54.45;21.70;;;;;;;;;;5003675;28;20038;-82
2022/01/19 03:56:09;;;;;;;74.97;27.88;;;;;;;;;;4985940;28;20049;-83
2022/01/19 03:58:37;;;;;;;69.38;27.88;;;;;;;;;;4985645;28;20076;-83
2022/01/19 04:01:08;;;;;;;71.20;26.27;;;;;;;;;;5003338;28;20050;-83
2022/01/19 04:06:29;;;;;;;62.22;23.95;;;;;;;;;;5001725;28;20050;-83
2022/01/19 04:08:55;;;;;;;78.05;30.58;;;;;;;;;;4986437;28;20085;-83
2022/01/19 04:11:23;;;;;;;84.15;32.70;;;;;;;;;;5000195;28;20049;-84
2022/01/19 04:16:31;;;;;;;71.55;25.95;;;;;;;;;;4996493;28;20129;-84
2022/01/19 04:19:04;;;;;;;71.65;25.88;;;;;;;;;;4993298;28;20731;-83
2022/01/19 04:21:30;;;;;;;76.28;29.20;;;;;;;;;;5002084;28;20060;-84
2022/01/19 04:23:56;;;;;;;69.78;28.10;;;;;;;;;;5004383;28;20053;-84
2022/01/19 04:26:22;;;;;;;69.85;28.63;;;;;;;;;;4988676;28;20575;-85
2022/01/19 04:28:48;;;;;;;67.32;26.75;;;;;;;;;;4993128;28;20072;-84
2022/01/19 04:31:14;;;;;;;75.18;32.67;;;;;;;;;;4978433;28;20384;-84
2022/01/19 04:33:43;;;;;;;50.15;23.48;;;;;;;;;;5003435;28;20409;-83
2022/01/19 04:36:27;;;;;;;62.60;23.25;;;;;;;;;;5002727;28;20046;-83
2022/01/19 05:06:01;;;;;;;82.00;32.78;;;;;;;;;;4995810;28;20932;-85
2022/01/19 05:14:07;;;;;;;79.15;32.42;;;;;;;;;;5002583;28;20544;-84
2022/01/19 05:16:33;;;;;;;63.35;23.15;;;;;;;;;;4983591;28;20045;-84
2022/01/19 05:19:02;;;;;;;72.63;32.80;;;;;;;;;;5002284;28;20042;-84
2022/01/19 05:21:28;;;;;;;84.80;32.42;;;;;;;;;;4984519;28;20042;-83
2022/01/19 05:23:54;;;;;;;90.03;32.95;;;;;;;;;;5002112;28;20092;-85
2022/01/19 05:26:21;;;;;;;77.65;31.05;;;;;;;;;;4985193;28;20478;-83
2022/01/19 05:28:47;;;;;;;94.82;35.47;;;;;;;;;;4956197;28;20053;-84
2022/01/19 05:31:13;;;;;;;93.53;34.63;;;;;;;;;;4988835;28;20121;-84
2022/01/19 05:33:39;;;;;;;94.43;36.38;;;;;;;;;;4987592;28;20450;-84
2022/01/19 05:36:05;;;;;;;82.20;32.72;;;;;;;;;;5011672;28;20515;-85
2022/01/19 05:38:31;;;;;;;88.38;33.60;;;;;;;;;;4997906;28;20044;-85
2022/01/19 05:40:58;;;;;;;85.63;34.28;;;;;;;;;;4987632;28;20073;-83
2022/01/19 05:43:24;;;;;;;96.55;34.63;;;;;;;;;;5007132;28;20073;-83
2022/01/19 05:45:50;;;;;;;86.93;33.63;;;;;;;;;;5006708;28;20065;-85
2022/01/19 05:48:16;;;;;;;78.55;32.35;;;;;;;;;;4989617;28;20073;-83
2022/01/19 05:50:42;;;;;;;85.90;34.65;;;;;;;;;;4986136;28;20038;-82
2022/01/19 05:53:08;;;;;;;84.40;32.67;;;;;;;;;;5005750;28;20140;-82
2022/01/19 05:55:34;;;;;;;87.45;33.38;;;;;;;;;;5004867;28;20096;-82
2022/01/19 05:58:00;;;;;;;79.35;32.95;;;;;;;;;;5004175;28;20038;-83
2022/01/19 06:00:27;;;;;;;84.45;34.55;;;;;;;;;;5004532;28;20743;-84
2022/01/19 06:02:53;;;;;;;72.43;28.10;;;;;;;;;;4983077;28;20133;-82
2022/01/19 06:05:19;;;;;;;78.03;29.77;;;;;;;;;;5001900;28;20054;-84
2022/01/19 06:07:46;;;;;;;60.78;24.02;;;;;;;;;;5005875;28;20038;-83
2022/01/19 06:10:42;;;;;;;75.70;30.73;;;;;;;;;;5005579;28;20038;-84
2022/01/19 06:13:00;;;;;;;73.05;30.80;;;;;;;;;;4973743;28;20053;-83
2022/01/19 06:15:26;;;;;;;86.35;35.83;;;;;;;;;;5005996;28;20564;-84
2022/01/19 06:17:52;;;;;;;79.38;34.40;;;;;;;;;;4988582;28;20847;-84
2022/01/19 06:20:18;;;;;;;69.45;32.42;;;;;;;;;;5004804;28;20107;-85
2022/01/19 06:22:47;;;;;;;84.30;35.20;;;;;;;;;;5003935;28;20509;-84
2022/01/19 06:25:13;;;;;;;85.78;35.35;;;;;;;;;;5003742;28;20517;-84
2022/01/19 06:27:39;;;;;;;74.85;31.33;;;;;;;;;;5003970;28;20096;-84
2022/01/19 06:30:06;;;;;;;83.60;37.78;;;;;;;;;;5002201;28;20042;-82
2022/01/19 06:32:32;;;;;;;72.30;31.98;;;;;;;;;;5003388;28;20045;-83
2022/01/19 06:34:58;;;;;;;76.85;33.15;;;;;;;;;;4985045;28;20521;-83
2022/01/19 06:37:24;;;;;;;74.35;33.00;;;;;;;;;;5002578;28;20493;-81
2022/01/19 06:39:52;;;;;;;74.10;34.40;;;;;;;;;;5004074;28;20038;-82
2022/01/19 06:42:18;;;;;;;76.80;33.22;;;;;;;;;;5002566;28;20038;-83
2022/01/19 06:44:44;;;;;;;82.82;33.63;;;;;;;;;;5024029;28;20033;-83
2022/01/19 06:47:13;;;;;;;70.63;32.47;;;;;;;;;;4987752;28;20038;-82
2022/01/19 06:49:39;;;;;;;77.20;33.90;;;;;;;;;;4990411;28;20395;-83
2022/01/19 06:52:05;;;;;;;69.43;32.83;;;;;;;;;;4988618;28;20111;-82
2022/01/19 06:54:34;;;;;;;82.03;33.80;;;;;;;;;;5007525;28;20076;-82
2022/01/19 06:57:00;;;;;;;66.25;29.77;;;;;;;;;;5006101;28;20525;-85
2022/01/19 06:59:27;;;;;;;73.57;32.65;;;;;;;;;;5006901;28;20172;-85
2022/01/19 07:01:53;;;;;;;63.70;29.70;;;;;;;;;;4985668;28;20085;-88
2022/01/19 07:04:20;;;;;;;74.35;30.67;;;;;;;;;;4969635;28;20058;-85
2022/01/19 07:06:46;;;;;;;65.10;32.22;;;;;;;;;;4970660;28;20039;-83
2022/01/19 07:09:16;;;;;;;67.70;32.42;;;;;;;;;;4987103;28;20053;-85
2022/01/19 07:11:42;;;;;;;64.82;28.83;;;;;;;;;;4991441;28;20199;-83
2022/01/19 07:14:12;;;;;;;70.13;31.80;;;;;;;;;;5005230;28;20040;-82
2022/01/19 07:16:38;;;;;;;66.25;31.75;;;;;;;;;;5003660;28;20046;-82
2022/01/19 07:19:04;;;;;;;60.67;28.83;;;;;;;;;;5005931;28;20128;-82
2022/01/19 07:21:30;;;;;;;67.43;31.50;;;;;;;;;;5006099;28;20208;-82
2022/01/19 07:23:57;;;;;;;73.93;32.42;;;;;;;;;;5005774;28;20046;-82
2022/01/19 07:26:23;;;;;;;74.43;31.42;;;;;;;;;;5005287;28;20053;-86
2022/01/19 07:28:49;;;;;;;64.47;31.45;;;;;;;;;;5003430;28;20065;-83
2022/01/19 07:31:15;;;;;;;66.63;32.80;;;;;;;;;;5002503;28;20045;-82
2022/01/19 07:33:41;;;;;;;74.50;33.50;;;;;;;;;;5002891;28;20448;-83
2022/01/19 07:36:07;;;;;;;70.85;32.38;;;;;;;;;;4984563;28;20747;-83
2022/01/19 07:38:33;;;;;;;68.45;32.15;;;;;;;;;;5004276;28;20057;-83
2022/01/19 07:40:59;;;;;;;76.43;33.20;;;;;;;;;;5003684;28;20045;-85
2022/01/19 07:43:26;;;;;;;65.82;30.45;;;;;;;;;;5011183;28;20515;-81
2022/01/19 07:45:52;;;;;;;71.85;33.95;;;;;;;;;;5000913;28;20046;-81
2022/01/19 07:48:18;;;;;;;72.05;31.52;;;;;;;;;;5013627;28;20112;-86
2022/01/19 07:50:44;;;;;;;61.92;27.80;;;;;;;;;;4987866;28;20433;-83
2022/01/19 07:53:10;;;;;;;74.60;33.53;;;;;;;;;;5003029;28;20037;-82
2022/01/19 07:55:36;;;;;;;70.80;32.22;;;;;;;;;;4985775;28;20539;-83
2022/01/19 07:58:03;;;;;;;70.93;32.90;;;;;;;;;;5002097;28;20521;-84
2022/01/19 08:00:30;;;;;;;72.85;34.47;;;;;;;;;;5003420;28;20049;-83
2022/01/19 08:02:56;;;;;;;72.45;34.10;;;;;;;;;;4968106;28;20494;-82
2022/01/19 08:05:22;;;;;;;68.85;33.65;;;;;;;;;;4984555;28;20811;-83
2022/01/19 08:07:48;;;;;;;59.60;27.92;;;;;;;;;;4985386;28;20406;-82
2022/01/19 08:10:14;;;;;;;80.80;33.97;;;;;;;;;;4985153;28;20092;-81
2022/01/19 08:12:42;;;;;;;69.07;32.80;;;;;;;;;;4985167;28;20038;-82
2022/01/19 08:15:09;;;;;;;66.43;32.17;;;;;;;;;;5001760;28;20454;-80
2022/01/19 08:17:35;;;;;;;62.25;31.33;;;;;;;;;;4984386;28;20092;-80
2022/01/19 08:20:01;;;;;;;68.60;31.77;;;;;;;;;;4984199;28;20053;-82
2022/01/19 08:22:28;;;;;;;63.15;31.70;;;;;;;;;;4985193;28;20045;-80
2022/01/19 08:24:55;;;;;;;72.53;32.17;;;;;;;;;;4984826;28;20125;-80
2022/01/19 08:27:21;;;;;;;61.25;27.83;;;;;;;;;;5002741;28;20132;-80
2022/01/19 08:29:47;;;;;;;66.28;31.13;;;;;;;;;;5004745;28;20073;-80
2022/01/19 08:32:13;;;;;;;66.88;31.13;;;;;;;;;;4985494;28;20046;-82
2022/01/19 08:34:39;;;;;;;66.57;35.15;;;;;;;;;;4985630;28;20081;-79
2022/01/19 08:37:06;;;;;;;70.43;32.78;;;;;;;;;;5003927;28;20118;-82
2022/01/19 08:39:32;;;;;;;69.07;34.50;;;;;;;;;;4970666;28;20056;-80
2022/01/19 08:41:59;;;;;;;70.18;31.38;;;;;;;;;;5004792;28;20038;-80
2022/01/19 08:44:25;;;;;;;68.32;32.17;;;;;;;;;;5002597;28;20085;-81
2022/01/19 08:46:51;;;;;;;77.00;36.83;;;;;;;;;;4991102;28;20080;-80
2022/01/19 08:49:17;;;;;;;69.20;31.13;;;;;;;;;;5006290;28;20038;-80
2022/01/19 08:51:43;;;;;;;77.72;34.40;;;;;;;;;;5010233;28;20125;-83
2022/01/19 08:54:11;;;;;;;78.45;35.92;;;;;;;;;;5005434;28;20033;-82
2022/01/19 08:56:37;;;;;;;67.53;32.17;;;;;;;;;;5005287;28;20053;-83
2022/01/19 08:59:04;;;;;;;84.57;40.08;;;;;;;;;;4990699;28;20054;-83
2022/01/19 09:01:30;;;;;;;65.32;32.83;;;;;;;;;;5008838;28;20517;-83
2022/01/19 09:03:56;;;;;;;77.57;35.13;;;;;;;;;;4991097;28;20045;-83
2022/01/19 09:06:22;;;;;;;72.72;34.20;;;;;;;;;;4991095;28;20054;-84
2022/01/19 09:08:48;;;;;;;65.43;34.55;;;;;;;;;;5009226;28;20120;-82
2022/01/19 09:11:14;;;;;;;77.85;39.25;;;;;;;;;;4990871;28;20128;-83
2022/01/19 09:13:40;;;;;;;64.55;32.03;;;;;;;;;;4991607;28;20049;-83
2022/01/19 09:16:06;;;;;;;79.20;36.53;;;;;;;;;;5008149;28;20115;-82
2022/01/19 09:18:33;;;;;;;76.28;35.63;;;;;;;;;;5008696;28;20042;-82
2022/01/19 09:20:59;;;;;;;67.38;32.50;;;;;;;;;;5008027;28;20068;-82
2022/01/19 09:23:25;;;;;;;73.97;34.42;;;;;;;;;;4974262;28;20117;-83
2022/01/19 09:25:52;;;;;;;74.60;35.75;;;;;;;;;;4991828;28;20485;-82
2022/01/19 09:28:18;;;;;;;65.22;31.88;;;;;;;;;;5008565;28;20116;-84
2022/01/19 09:30:45;;;;;;;71.57;35.75;;;;;;;;;;4991676;28;20723;-83
2022/01/19 09:33:17;;;;;;;71.10;38.33;;;;;;;;;;5007738;28;20050;-83
2022/01/19 09:38:23;;;;;;;72.30;34.15;;;;;;;;;;5008647;28;20045;-82
2022/01/19 09:40:49;;;;;;;71.30;33.33;;;;;;;;;;4990086;28;20046;-85
2022/01/19 09:43:17;;;;;;;46.95;23.77;;;;;;;;;;4975048;28;20510;-82
2022/01/19 09:45:44;;;;;;;73.22;36.13;;;;;;;;;;5008209;28;20210;-84
2022/01/19 09:48:10;;;;;;;76.03;38.13;;;;;;;;;;5010072;28;20132;-83
2022/01/19 09:50:37;;;;;;;81.18;35.45;;;;;;;;;;4994417;28;20401;-83
2022/01/19 09:53:04;;;;;;;74.32;37.08;;;;;;;;;;5016717;28;20128;-82
2022/01/19 09:55:31;;;;;;;108.70;34.78;;;;;;;;;;5011420;28;20616;-84
2022/01/19 09:57:57;;;;;;;69.75;36.50;;;;;;;;;;5008574;28;20394;-83
2022/01/19 10:00:23;;;;;;;56.70;26.88;;;;;;;;;;5008934;28;20042;-85
2022/01/19 10:03:09;;;;;;;66.15;35.70;;;;;;;;;;5008085;28;20058;-82
2022/01/19 10:05:35;;;;;;;70.10;32.97;;;;;;;;;;4999843;28;20045;-86
2022/01/19 10:08:01;;;;;;;71.65;33.35;;;;;;;;;;5007694;28;20416;-83
2022/01/19 10:10:27;;;;;;;60.13;30.42;;;;;;;;;;5006452;28;20532;-83
2022/01/19 10:18:33;;;;;;;79.38;36.47;;;;;;;;;;4979780;28;20098;-83
2022/01/19 10:21:06;;;;;;;71.97;36.63;;;;;;;;;;5007280;28;20383;-83
2022/01/19 10:23:37;;;;;;;75.85;38.42;;;;;;;;;;5008157;28;20141;-84
2022/01/19 10:26:07;;;;;;;69.70;34.78;;;;;;;;;;4991267;28;20057;-82
2022/01/19 10:28:55;;;;;;;64.97;29.58;;;;;;;;;;4973183;28;20045;-81
2022/01/19 10:31:21;;;;;;;68.70;34.42;;;;;;;;;;4979983;28;20058;-82
2022/01/19 10:34:06;;;;;;;68.15;29.95;;;;;;;;;;4989662;28;20054;-82
2022/01/19 10:36:46;;;;;;;65.95;35.45;;;;;;;;;;4989687;28;20149;-83
2022/01/19 10:39:12;;;;;;;59.58;33.08;;;;;;;;;;4989665;28;20378;-81
2022/01/19 10:42:01;;;;;;;69.55;36.70;;;;;;;;;;5006494;28;20053;-84
2022/01/19 10:44:32;;;;;;;76.32;32.35;;;;;;;;;;5007349;28;20386;-81
2022/01/19 10:46:58;;;;;;;78.40;39.10;;;;;;;;;;4988811;28;20046;-84
2022/01/19 10:49:25;;;;;;;80.70;39.42;;;;;;;;;;5007208;28;20053;-81
2022/01/19 10:51:56;;;;;;;73.35;35.15;;;;;;;;;;4987391;28;20136;-83
2022/01/19 10:54:26;;;;;;;65.78;32.58;;;;;;;;;;4986908;28;20065;-82
2022/01/19 10:56:57;;;;;;;67.97;35.60;;;;;;;;;;4970606;28;20054;-81
2022/01/19 10:59:27;;;;;;;71.22;38.83;;;;;;;;;;4969505;28;20093;-81
2022/01/19 11:01:56;;;;;;;57.33;27.58;;;;;;;;;;4997924;28;20054;-81
2022/01/19 11:04:25;;;;;;;68.45;32.83;;;;;;;;;;4988161;28;20042;-82
2022/01/19 11:06:59;;;;;;;75.90;38.75;;;;;;;;;;4989328;28;20042;-81
2022/01/19 11:09:27;;;;;;;77.93;37.50;;;;;;;;;;5007246;28;20054;-85
2022/01/19 11:11:56;;;;;;;77.72;40.00;;;;;;;;;;5006409;28;20390;-80
2022/01/19 11:14:24;;;;;;;67.80;33.78;;;;;;;;;;5007413;28;20165;-86
2022/01/19 11:16:51;;;;;;;64.70;33.30;;;;;;;;;;5005538;28;20472;-84
2022/01/19 11:19:18;;;;;;;72.55;38.85;;;;;;;;;;4988462;28;20414;-81
2022/01/19 11:21:51;;;;;;;79.57;39.65;;;;;;;;;;4988956;28;20068;-82
2022/01/19 11:24:43;;;;;;;76.63;38.47;;;;;;;;;;5006896;28;20042;-85
2022/01/19 11:27:09;;;;;;;77.63;39.53;;;;;;;;;;4963665;28;20543;-83
2022/01/19 11:29:38;;;;;;;58.55;31.80;;;;;;;;;;4986248;28;20433;-81
2022/01/19 11:32:13;;;;;;;76.00;42.72;;;;;;;;;;4989497;28;20061;-81
2022/01/19 11:34:46;;;;;;;75.95;38.50;;;;;;;;;;4984985;28;20490;-84
2022/01/19 11:37:13;;;;;;;77.03;37.13;;;;;;;;;;4987744;28;20132;-82
2022/01/19 11:40:01;;;;;;;75.00;38.97;;;;;;;;;;5005797;28;20343;-82
2022/01/19 11:42:27;;;;;;;55.83;29.20;;;;;;;;;;5006216;28;20034;-82
2022/01/19 11:44:54;;;;;;;70.03;36.03;;;;;;;;;;5008372;28;20121;-83
2022/01/19 11:47:21;;;;;;;74.53;38.53;;;;;;;;;;5004658;28;20058;-86
2022/01/19 11:49:53;;;;;;;73.80;40.47;;;;;;;;;;5006956;28;20056;-84
2022/01/19 11:52:22;;;;;;;72.38;40.95;;;;;;;;;;5006034;28;20589;-85
2022/01/19 11:54:49;;;;;;;69.07;35.45;;;;;;;;;;5008871;28;20049;-84
2022/01/19 11:57:17;;;;;;;70.70;37.10;;;;;;;;;;5011791;28;20057;-84
2022/01/19 11:59:50;;;;;;;67.68;35.03;;;;;;;;;;5019393;28;20060;-81
2022/01/19 12:02:32;;;;;;;69.35;36.15;;;;;;;;;;5009729;28;20088;-81
2022/01/19 12:04:58;;;;;;;75.40;38.33;;;;;;;;;;5006405;28;20513;-82
2022/01/19 12:07:34;;;;;;;59.85;29.75;;;;;;;;;;5006491;28;20095;-80
2022/01/19 12:10:00;;;;;;;66.55;39.53;;;;;;;;;;5008955;28;20038;-82
2022/01/19 12:12:31;;;;;;;68.05;35.47;;;;;;;;;;4972313;28;20046;-80
2022/01/19 12:14:58;;;;;;;68.05;36.13;;;;;;;;;;5005074;28;20062;-82
2022/01/19 12:17:44;;;;;;;80.45;41.35;;;;;;;;;;5005347;28;20470;-80
2022/01/19 12:20:10;;;;;;;65.38;35.35;;;;;;;;;;5005585;28;20042;-81
2022/01/19 12:22:36;;;;;;;59.50;33.03;;;;;;;;;;5005298;28;20168;-81
2022/01/19 12:25:06;;;;;;;74.45;37.63;;;;;;;;;;5005491;28;20509;-81
2022/01/19 12:27:37;;;;;;;64.05;34.03;;;;;;;;;;4988231;28;20054;-80
2022/01/19 12:30:09;;;;;;;54.60;28.77;;;;;;;;;;5006563;28;20445;-81
2022/01/19 12:32:38;;;;;;;71.80;37.20;;;;;;;;;;5006774;28;20053;-81
2022/01/19 12:35:12;;;;;;;55.30;30.52;;;;;;;;;;4990457;28;20042;-80
2022/01/19 12:37:40;;;;;;;59.13;31.27;;;;;;;;;;5010343;28;20053;-83
2022/01/19 12:40:27;;;;;;;55.35;27.25;;;;;;;;;;4991748;28;20084;-85
2022/01/19 12:42:58;;;;;;;54.42;29.77;;;;;;;;;;4991138;28;20131;-83
2022/01/19 12:45:28;;;;;;;59.72;31.38;;;;;;;;;;4990409;28;20085;-85
2022/01/19 12:47:57;;;;;;;75.28;32.58;;;;;;;;;;4989759;28;20050;-85
2022/01/19 12:50:29;;;;;;;69.75;36.00;;;;;;;;;;4990470;28;20057;-85
2022/01/19 12:52:57;;;;;;;61.47;29.23;;;;;;;;;;4991361;28;20042;-84
2022/01/19 12:55:26;;;;;;;64.28;33.60;;;;;;;;;;5009641;28;20057;-83
2022/01/19 12:57:54;;;;;;;56.55;30.70;;;;;;;;;;5008562;28;20053;-86
2022/01/19 13:00:22;;;;;;;64.90;30.10;;;;;;;;;;4991115;28;20441;-84
2022/01/19 13:02:49;;;;;;;46.58;23.23;;;;;;;;;;5008841;28;20065;-82
2022/01/19 13:05:18;;;;;;;59.35;30.42;;;;;;;;;;5008483;28;20042;-86
2022/01/19 13:07:45;;;;;;;112.10;35.17;;;;;;;;;;4992511;28;20049;-83
2022/01/19 13:10:41;;;;;;;54.53;27.95;;;;;;;;;;5009000;28;20082;-86
2022/01/19 13:15:40;;;;;;;57.42;31.98;;;;;;;;;;5009200;28;20405;-86
2022/01/19 13:18:07;;;;;;;75.82;30.27;;;;;;;;;;5008603;28;20056;-83
2022/01/19 13:20:33;;;;;;;65.47;34.90;;;;;;;;;;5008601;28;20513;-86
2022/01/19 13:22:59;;;;;;;76.03;31.38;;;;;;;;;;5008443;28;20038;-82
2022/01/19 13:25:27;;;;;;;72.85;32.63;;;;;;;;;;4991149;28;20448;-86
2022/01/19 13:27:57;;;;;;;62.72;33.42;;;;;;;;;;4989479;28;20401;-84
2022/01/19 13:30:24;;;;;;;48.90;25.05;;;;;;;;;;5005927;28;20046;-86
2022/01/19 13:32:50;;;;;;;64.82;30.77;;;;;;;;;;5014552;28;20550;-86
2022/01/19 13:35:17;;;;;;;56.40;26.88;;;;;;;;;;5013886;28;20382;-84
2022/01/19 13:37:51;;;;;;;67.15;34.85;;;;;;;;;;5003518;28;20045;-87
2022/01/19 13:40:20;;;;;;;49.92;24.67;;;;;;;;;;5008510;28;20053;-83
2022/01/19 13:42:51;;;;;;;42.88;24.10;;;;;;;;;;5008920;28;20582;-86
2022/01/19 13:50:45;;;;;;;66.88;29.05;;;;;;;;;;5029401;28;20060;-84
2022/01/19 13:53:12;;;;;;;46.60;20.00;;;;;;;;;;5001294;28;20084;-85
2022/01/19 13:55:38;;;;;;;60.15;28.17;;;;;;;;;;5014713;28;20042;-84
2022/01/19 13:58:12;;;;;;;65.07;32.38;;;;;;;;;;4994538;28;20041;-87
2022/01/19 14:00:49;;;;;;;70.47;25.58;;;;;;;;;;5004465;28;20042;-86
2022/01/19 14:03:15;;;;;;;62.35;28.67;;;;;;;;;;5006974;28;20176;-85
2022/01/19 14:05:43;;;;;;;71.93;31.35;;;;;;;;;;5013241;28;20041;-83
2022/01/19 14:08:10;;;;;;;80.22;35.17;;;;;;;;;;5012215;28;20069;-84
2022/01/19 14:10:47;;;;;;;66.97;31.20;;;;;;;;;;4984568;28;20044;-86
2022/01/19 14:13:32;;;;;;;73.88;34.83;;;;;;;;;;5012083;28;20477;-82
2022/01/19 14:16:18;;;;;;;91.93;34.72;;;;;;;;;;5007417;28;20067;-86
2022/01/19 14:19:05;;;;;;;65.45;26.35;;;;;;;;;;4973012;28;20035;-87
2022/01/19 14:21:31;;;;;;;54.15;25.60;;;;;;;;;;5006012;28;20093;-85
2022/01/19 14:24:01;;;;;;;82.53;36.83;;;;;;;;;;5003579;28;20073;-86
2022/01/19 14:26:28;;;;;;;77.80;32.75;;;;;;;;;;5005139;28;20453;-86
2022/01/19 14:29:13;;;;;;;68.53;31.50;;;6.00;99.90;;;;;;4989914;28;20050;-88
2022/01/19 14:31:53;;;;;;;56.20;24.40;;;;;;;;;;4991672;28;20068;-88
2022/01/19 14:34:33;;;;;;;70.63;33.00;;;;;;;;;;4982060;28;20085;-88
2022/01/19 14:37:19;;;;;;;62.03;29.45;;;;;;;;;;4981696;28;20046;-83
2022/01/19 14:39:59;;;;;;;71.78;28.13;;;;;;;;;;5000634;28;20046;-87
2022/01/19 14:42:31;;;;;;;89.78;31.83;;;;;;;;;;4998804;28;20052;-89
2022/01/19 14:45:22;;;;;;;59.25;27.35;;;;;;;;;;5001157;28;20445;-87
2022/01/19 14:47:49;;;;;;;63.50;25.08;;;;;;;;;;4971282;28;20448;-89
2022/01/19 14:50:24;;;;;;;67.13;27.70;;;;;;;;;;5003290;28;20037;-86
2022/01/19 14:52:51;;;;;;;55.53;25.15;;;;;;;;;;4998175;28;20041;-85
2022/01/19 14:55:21;;;;;;;34.15;14.73;;;;;;;;;;4981747;28;20108;-86
2022/01/19 14:57:47;;;;;;;64.97;25.05;;;;;;;;;;4985188;28;20100;-86
2022/01/19 15:00:14;;;;;;;52.63;22.52;;;;;;;;;;4996090;28;20038;-88
2022/01/19 15:02:40;;;;;;;54.75;21.80;;;;;;;;;;4990914;28;20796;-86
2022/01/19 15:05:06;;;;;;;39.42;17.63;;;;;;;;;;5001662;28;20049;-86
2022/01/19 15:07:44;;;;;;;46.88;22.73;;;;;;;;;;4973090;28;20133;-86
2022/01/19 15:10:13;;;;;;;48.00;18.35;;;;;;;;;;4976845;28;20401;-87
2022/01/19 15:12:39;;;;;;;49.97;20.55;;;;;;;;;;4981870;28;20566;-89
2022/01/19 15:15:09;;;;;;;51.22;23.00;;;;;;;;;;4970885;28;20046;-87
2022/01/19 15:17:39;;;;;;;56.30;23.15;;;;;;;;;;4975317;28;20921;-87
2022/01/19 15:20:06;;;;;;;57.83;22.67;;;;;;;;;;4970348;28;20121;-88
2022/01/19 15:22:32;;;;;;;46.42;17.77;;;;;;;;;;4991576;28;20045;-89
2022/01/19 15:24:58;;;;;;;57.20;21.88;;;;;;;;;;4993728;28;20092;-87
2022/01/19 15:27:37;;;;;;;42.30;20.40;;;;;;;;;;4991917;28;20385;-88
2022/01/19 15:30:04;;;;;;;34.15;16.02;;;;;;;;;;4974253;28;20900;-89
2022/01/19 15:32:31;;;;;;;46.33;18.13;;;;;;;;;;4996961;28;20054;-90
2022/01/19 15:34:57;;;;;;;48.08;19.73;;;;;;;;;;4978804;28;20104;-90
2022/01/19 15:37:36;;;;;;;44.70;19.80;;;;;;;;;;4976843;28;20039;-88
2022/01/19 15:40:02;;;;;;;45.42;20.00;;;;;;;;;;4958421;28;20093;-87
2022/01/19 15:42:29;;;;;;;35.08;15.00;;;;;;;;;;4957013;28;20047;-89
2022/01/19 15:45:01;;;;;;;42.30;18.67;;;;;;;;;;4998406;28;20057;-88
2022/01/19 15:47:37;;;;;;;43.05;19.52;;;;;;;;;;4996577;28;20132;-88
2022/01/19 15:50:07;;;;;;;47.15;20.52;;;;;;;;;;5003224;28;20046;-91
2022/01/19 15:52:33;;;;;;;42.47;20.05;;;;;;;;;;4969337;28;20057;-88
2022/01/19 15:55:00;;;;;;;46.55;21.38;;;;;;;;;;5014837;28;20085;-89
2022/01/19 15:57:26;;;;;;;49.88;19.92;;;;;;;;;;4989980;28;20049;-87
2022/01/19 15:59:55;;;;;;;44.15;18.17;;;;;;;;;;4985855;28;20894;-89